createdAt,value
2018-11-28T00:00:39.147Z,96.05
2018-11-28T00:03:08.196Z,95.27
2018-11-28T00:05:55.769Z,95.70
2018-11-28T00:08:43.031Z,95.77
2018-11-28T00:14:27.077Z,96.59
2018-11-28T00:16:54.692Z,95.79
2018-11-28T00:19:22.361Z,95.67
2018-11-28T00:21:49.995Z,95.94
2018-11-28T00:24:17.744Z,96.25
2018-11-28T00:26:45.249Z,96.36
2018-11-28T00:29:12.871Z,95.59
2018-11-28T00:31:40.444Z,96.14
2018-11-28T00:34:08.103Z,95.85
2018-11-28T00:36:35.660Z,96.10
2018-11-28T00:39:03.858Z,96.31
2018-11-28T00:41:31.473Z,96.81
2018-11-28T00:43:59.145Z,96.12
2018-11-28T00:46:26.805Z,97.63
2018-11-28T00:48:54.540Z,95.97
2018-11-28T00:51:22.246Z,96.56
2018-11-28T00:53:49.820Z,95.75
2018-11-28T00:56:17.452Z,96.29
2018-11-28T00:58:44.965Z,96.47
2018-11-28T01:01:12.597Z,96.13
2018-11-28T01:03:40.125Z,97.00
2018-11-28T01:06:07.658Z,97.10
2018-11-28T01:08:35.225Z,96.98
2018-11-28T01:11:02.808Z,95.59
2018-11-28T01:13:30.529Z,95.95
2018-11-28T01:15:58.061Z,95.48
2018-11-28T01:18:25.587Z,95.58
2018-11-28T01:20:53.146Z,95.36
2018-11-28T01:23:20.719Z,96.25
2018-11-28T01:25:48.291Z,96.38
2018-11-28T01:28:15.991Z,96.42
2018-11-28T01:30:43.533Z,96.16
2018-11-28T01:33:11.092Z,96.79
2018-11-28T01:35:38.637Z,96.92
2018-11-28T01:38:06.165Z,97.70
2018-11-28T01:40:33.736Z,97.62
2018-11-28T01:43:01.722Z,97.90
2018-11-28T01:45:29.282Z,98.34
2018-11-28T01:47:56.813Z,97.73
2018-11-28T01:50:24.437Z,98.62
2018-11-28T01:52:52.060Z,98.53
2018-11-28T01:55:20.689Z,98.51
2018-11-28T01:57:48.316Z,99.62
2018-11-28T02:00:16.639Z,100.00
2018-11-28T02:02:44.235Z,99.43
2018-11-28T02:05:12.347Z,100.00
2018-11-28T02:07:40.023Z,100.00
2018-11-28T02:10:12.237Z,100.00
2018-11-28T02:12:40.035Z,100.00
2018-11-28T02:15:09.201Z,100.00
2018-11-28T02:17:36.821Z,100.00
2018-11-28T02:20:05.367Z,100.00
2018-11-28T02:22:33.115Z,100.00
2018-11-28T02:25:00.694Z,100.00
2018-11-28T02:27:28.312Z,100.00
2018-11-28T02:29:55.928Z,100.00
2018-11-28T02:32:23.497Z,100.00
2018-11-28T02:34:51.044Z,100.00
2018-11-28T02:37:18.633Z,100.00
2018-11-28T02:39:46.253Z,100.00
2018-11-28T02:42:13.790Z,100.00
2018-11-28T02:44:41.898Z,100.00
2018-11-28T02:47:09.432Z,100.00
2018-11-28T02:49:37.109Z,100.00
2018-11-28T02:52:05.103Z,100.00
2018-11-28T02:54:32.725Z,100.00
2018-11-28T02:57:00.392Z,100.00
2018-11-28T02:59:27.978Z,100.00
2018-11-28T03:01:55.609Z,100.00
2018-11-28T03:04:23.167Z,100.00
2018-11-28T03:06:50.950Z,100.00
2018-11-28T03:09:18.607Z,100.00
2018-11-28T03:11:46.176Z,100.00
2018-11-28T03:14:13.753Z,100.00
2018-11-28T03:16:41.291Z,100.00
2018-11-28T03:19:08.978Z,100.00
2018-11-28T03:21:36.604Z,100.00
2018-11-28T03:24:04.190Z,100.00
2018-11-28T03:26:31.848Z,100.00
2018-11-28T03:28:59.517Z,100.00
2018-11-28T03:31:27.043Z,100.00
2018-11-28T03:33:54.555Z,100.00
2018-11-28T03:36:22.134Z,100.00
2018-11-28T03:38:49.678Z,100.00
2018-11-28T03:41:17.264Z,100.00
2018-11-28T03:43:44.855Z,100.00
2018-11-28T03:46:12.481Z,100.00
2018-11-28T03:48:40.194Z,100.00
2018-11-28T03:51:07.829Z,100.00
2018-11-28T03:53:35.518Z,100.00
2018-11-28T03:56:03.170Z,100.00
2018-11-28T03:58:30.740Z,100.00
2018-11-28T04:00:58.286Z,100.00
2018-11-28T04:03:25.814Z,100.00
2018-11-28T04:05:53.605Z,100.00
2018-11-28T04:08:21.272Z,100.00
2018-11-28T04:10:48.775Z,100.00
2018-11-28T04:13:16.311Z,100.00
2018-11-28T04:15:43.927Z,100.00
2018-11-28T04:18:11.534Z,100.00
2018-11-28T04:20:39.131Z,100.00
2018-11-28T04:23:06.722Z,100.00
2018-11-28T04:25:34.788Z,100.00
2018-11-28T04:28:02.404Z,100.00
2018-11-28T04:30:29.967Z,100.00
2018-11-28T04:32:57.770Z,100.00
2018-11-28T04:35:25.397Z,100.00
2018-11-28T04:37:52.974Z,100.00
2018-11-28T04:40:21.214Z,100.00
2018-11-28T04:42:49.039Z,100.00
2018-11-28T04:45:17.319Z,100.00
2018-11-28T04:47:44.906Z,100.00
2018-11-28T04:50:12.777Z,100.00
2018-11-28T04:52:40.311Z,100.00
2018-11-28T04:55:11.461Z,100.00
2018-11-28T04:57:39.142Z,100.00
2018-11-28T05:00:12.443Z,100.00
2018-11-28T05:02:39.992Z,100.00
2018-11-28T05:05:08.037Z,100.00
2018-11-28T05:07:35.641Z,100.00
2018-11-28T05:10:03.782Z,100.00
2018-11-28T05:12:31.645Z,100.00
2018-11-28T05:14:59.466Z,100.00
2018-11-28T05:17:27.067Z,100.00
2018-11-28T05:19:54.609Z,100.00
2018-11-28T05:22:22.332Z,100.00
2018-11-28T05:24:50.162Z,100.00
2018-11-28T05:27:17.856Z,100.00
2018-11-28T05:29:45.385Z,100.00
2018-11-28T05:32:13.081Z,100.00
2018-11-28T05:34:40.840Z,100.00
2018-11-28T05:37:08.541Z,100.00
2018-11-28T05:39:36.252Z,100.00
2018-11-28T05:42:03.790Z,100.00
2018-11-28T05:44:31.334Z,100.00
2018-11-28T05:46:58.910Z,100.00
2018-11-28T05:49:26.561Z,100.00
2018-11-28T05:51:54.140Z,100.00
2018-11-28T05:54:21.745Z,100.00
2018-11-28T05:56:49.340Z,100.00
2018-11-28T05:59:16.933Z,100.00
2018-11-28T06:01:44.536Z,100.00
2018-11-28T06:04:12.054Z,100.00
2018-11-28T06:06:39.646Z,100.00
2018-11-28T06:09:08.196Z,100.00
2018-11-28T06:11:36.170Z,100.00
2018-11-28T06:14:03.712Z,100.00
2018-11-28T06:16:31.437Z,100.00
2018-11-28T06:18:59.108Z,100.00
2018-11-28T06:21:26.779Z,100.00
2018-11-28T06:23:54.386Z,100.00
2018-11-28T06:26:21.935Z,100.00
2018-11-28T06:28:49.883Z,100.00
2018-11-28T06:31:17.121Z,100.00
2018-11-28T06:33:44.763Z,100.00
2018-11-28T06:36:12.324Z,100.00
2018-11-28T06:38:39.937Z,100.00
2018-11-28T06:41:07.546Z,100.00
2018-11-28T06:43:35.146Z,100.00
2018-11-28T06:46:02.742Z,100.00
2018-11-28T06:48:30.239Z,100.00
2018-11-28T06:50:57.969Z,100.00
2018-11-28T06:53:25.534Z,100.00
2018-11-28T06:55:53.107Z,100.00
2018-11-28T06:58:20.665Z,100.00
2018-11-28T07:00:48.341Z,100.00
2018-11-28T07:03:15.950Z,100.00
2018-11-28T07:05:43.636Z,100.00
2018-11-28T07:08:11.219Z,100.00
2018-11-28T07:10:38.746Z,100.00
2018-11-28T07:13:06.349Z,100.00
2018-11-28T07:15:33.990Z,100.00
2018-11-28T07:18:07.179Z,100.00
2018-11-28T07:20:34.720Z,100.00
2018-11-28T07:23:02.293Z,100.00
2018-11-28T07:25:29.882Z,100.00
2018-11-28T07:27:57.459Z,100.00
2018-11-28T07:30:25.093Z,100.00
2018-11-28T07:32:53.492Z,100.00
2018-11-28T07:35:21.076Z,100.00
2018-11-28T07:37:48.720Z,100.00
2018-11-28T07:40:16.891Z,100.00
2018-11-28T07:43:00.354Z,100.00
2018-11-28T07:45:27.985Z,99.70
2018-11-28T07:47:55.522Z,100.00
2018-11-28T07:50:23.085Z,99.60
2018-11-28T07:52:50.633Z,98.49
2018-11-28T07:55:18.174Z,97.75
2018-11-28T07:57:45.766Z,97.91
2018-11-28T08:00:14.221Z,97.87
2018-11-28T08:02:42.015Z,97.61
2018-11-28T08:05:10.123Z,97.43
2018-11-28T08:07:37.687Z,96.91
2018-11-28T08:10:06.413Z,96.45
2018-11-28T08:12:33.935Z,97.98
2018-11-28T08:15:01.490Z,98.58
2018-11-28T08:17:29.968Z,98.42
2018-11-28T08:19:56.977Z,98.59
2018-11-28T08:22:24.635Z,98.88
2018-11-28T08:24:52.336Z,98.51
2018-11-28T08:27:19.857Z,98.51
2018-11-28T08:29:47.409Z,97.54
2018-11-28T08:32:15.118Z,97.21
2018-11-28T08:34:42.854Z,96.83
2018-11-28T08:37:10.472Z,96.24
2018-11-28T08:39:38.055Z,95.66
2018-11-28T08:42:05.960Z,95.47
2018-11-28T08:44:33.581Z,95.11
2018-11-28T08:47:01.154Z,92.70
2018-11-28T08:49:28.793Z,91.36
2018-11-28T08:51:56.366Z,91.49
2018-11-28T08:54:23.948Z,92.15
2018-11-28T08:56:51.639Z,90.38
2018-11-28T08:59:19.262Z,90.19
2018-11-28T09:01:46.928Z,90.58
2018-11-28T09:04:14.466Z,90.58
2018-11-28T09:06:42.039Z,89.00
2018-11-28T09:09:09.645Z,87.66
2018-11-28T09:11:37.182Z,87.46
2018-11-28T09:14:04.921Z,85.70
2018-11-28T09:16:32.470Z,87.57
2018-11-28T09:19:00.056Z,86.24
2018-11-28T09:21:27.581Z,84.71
2018-11-28T09:23:55.118Z,83.47
2018-11-28T09:26:22.949Z,82.99
2018-11-28T09:28:50.681Z,82.94
2018-11-28T09:31:18.446Z,82.81
2018-11-28T09:33:46.114Z,82.23
2018-11-28T09:36:13.666Z,81.27
2018-11-28T09:38:41.297Z,82.18
2018-11-28T09:41:08.865Z,81.43
2018-11-28T09:43:37.383Z,81.36
2018-11-28T09:46:05.045Z,81.90
2018-11-28T09:48:32.591Z,81.37
2018-11-28T09:51:00.152Z,80.64
2018-11-28T09:53:27.678Z,79.96
2018-11-28T09:55:55.201Z,81.80
2018-11-28T09:58:22.845Z,78.15
2018-11-28T10:00:50.399Z,77.94
2018-11-28T10:03:17.938Z,78.23
2018-11-28T10:05:45.617Z,77.19
2018-11-28T10:08:13.470Z,76.39
2018-11-28T10:10:41.021Z,77.17
2018-11-28T10:13:08.590Z,76.62
2018-11-28T10:15:36.100Z,76.37
2018-11-28T10:18:03.653Z,76.46
2018-11-28T10:20:31.855Z,76.63
2018-11-28T10:22:59.455Z,74.88
2018-11-28T10:25:27.273Z,73.66
2018-11-28T10:27:55.565Z,74.04
2018-11-28T10:30:23.970Z,73.48
2018-11-28T10:32:51.897Z,73.13
2018-11-28T10:35:19.553Z,73.89
2018-11-28T10:37:47.110Z,72.12
2018-11-28T10:40:17.320Z,73.53
2018-11-28T10:42:45.249Z,72.39
2018-11-28T10:45:13.662Z,72.43
2018-11-28T10:47:41.219Z,70.69
2018-11-28T10:50:10.539Z,70.46
2018-11-28T10:52:38.710Z,70.80
2018-11-28T10:55:07.304Z,69.89
2018-11-28T10:57:34.978Z,70.16
2018-11-28T11:00:02.484Z,71.39
2018-11-28T11:02:35.526Z,69.90
2018-11-28T11:05:08.474Z,70.09
2018-11-28T11:08:44.182Z,70.60
2018-11-28T11:11:17.092Z,69.15
2018-11-28T11:13:49.730Z,69.95
2018-11-28T11:16:22.726Z,68.65
2018-11-28T11:18:50.392Z,69.58
2018-11-28T11:21:17.981Z,69.32
2018-11-28T11:23:45.543Z,69.75
2018-11-28T11:26:13.083Z,69.69
2018-11-28T11:28:40.639Z,66.71
2018-11-28T11:31:08.200Z,67.08
2018-11-28T11:33:35.745Z,65.63
2018-11-28T11:36:03.362Z,66.71
2018-11-28T11:38:30.870Z,64.38
2018-11-28T11:40:58.500Z,63.94
2018-11-28T11:43:26.139Z,65.52
2018-11-28T11:45:53.773Z,64.90
2018-11-28T11:48:21.360Z,63.10
2018-11-28T11:50:48.904Z,62.21
2018-11-28T11:53:16.454Z,62.90
2018-11-28T11:55:44.375Z,61.36
2018-11-28T11:58:12.001Z,61.60
2018-11-28T12:00:40.460Z,60.16
2018-11-28T12:03:08.839Z,58.87
2018-11-28T12:05:36.385Z,58.82
2018-11-28T12:08:04.004Z,57.70
2018-11-28T12:10:31.771Z,58.73
2018-11-28T12:12:59.428Z,57.19
2018-11-28T12:15:26.966Z,55.75
2018-11-28T12:17:54.861Z,55.16
2018-11-28T12:20:23.469Z,55.23
2018-11-28T12:22:51.025Z,55.42
2018-11-28T12:25:18.669Z,53.97
2018-11-28T12:27:46.289Z,53.96
2018-11-28T12:30:15.012Z,53.14
2018-11-28T12:32:43.072Z,51.89
2018-11-28T12:35:11.563Z,51.56
2018-11-28T12:37:39.644Z,50.58
2018-11-28T12:40:10.182Z,50.55
2018-11-28T12:42:37.946Z,48.30
2018-11-28T12:45:08.697Z,47.18
2018-11-28T12:47:36.386Z,46.87
2018-11-28T12:50:04.714Z,46.38
2018-11-28T12:52:32.348Z,45.86
2018-11-28T12:55:00.821Z,45.05
2018-11-28T12:57:28.526Z,44.42
2018-11-28T12:59:56.105Z,44.85
2018-11-28T13:02:23.711Z,45.52
2018-11-28T13:04:51.245Z,46.42
2018-11-28T13:07:18.773Z,47.29
2018-11-28T13:09:46.460Z,46.84
2018-11-28T13:12:14.031Z,47.67
2018-11-28T13:14:41.584Z,47.48
2018-11-28T13:17:09.356Z,50.56
2018-11-28T13:19:37.047Z,50.06
2018-11-28T13:22:04.911Z,51.71
2018-11-28T13:24:32.467Z,51.91
2018-11-28T13:27:00.117Z,53.13
2018-11-28T13:29:27.874Z,55.05
2018-11-28T13:31:55.407Z,55.99
2018-11-28T13:34:23.083Z,55.27
2018-11-28T13:36:50.644Z,57.41
2018-11-28T13:39:18.406Z,57.57
2018-11-28T13:41:45.977Z,58.14
2018-11-28T13:44:13.563Z,57.70
2018-11-28T13:46:41.306Z,59.21
2018-11-28T13:49:09.044Z,58.18
2018-11-28T13:51:36.891Z,58.58
2018-11-28T13:54:20.790Z,59.95
2018-11-28T13:56:58.329Z,59.95
2018-11-28T13:58:59.896Z,58.91
2018-11-28T14:01:27.442Z,60.00
2018-11-28T14:03:55.004Z,59.29
2018-11-28T14:06:22.524Z,60.36
2018-11-28T14:08:50.198Z,60.08
2018-11-28T14:11:17.965Z,60.15
2018-11-28T14:13:45.775Z,60.38
2018-11-28T14:16:13.342Z,61.37
2018-11-28T14:18:41.001Z,60.86
2018-11-28T14:21:08.862Z,62.10
2018-11-28T14:23:36.534Z,62.14
2018-11-28T14:26:04.084Z,61.21
2018-11-28T14:28:31.685Z,62.54
2018-11-28T14:30:59.290Z,62.26
2018-11-28T14:33:26.884Z,62.51
2018-11-28T14:35:54.381Z,63.06
2018-11-28T14:38:21.912Z,62.83
2018-11-28T14:40:49.466Z,63.35
2018-11-28T14:43:17.002Z,63.45
2018-11-28T14:45:44.674Z,63.44
2018-11-28T14:48:12.251Z,64.25
2018-11-28T14:50:39.812Z,63.99
2018-11-28T14:53:07.374Z,63.79
2018-11-28T14:55:36.534Z,63.87
2018-11-28T14:58:04.093Z,63.21
2018-11-28T15:00:32.127Z,64.03
2018-11-28T15:03:17.325Z,64.48
2018-11-28T15:07:53.329Z,65.44
2018-11-28T15:10:22.706Z,66.74
2018-11-28T15:12:50.450Z,66.89
2018-11-28T15:15:18.101Z,66.66
2018-11-28T15:17:45.673Z,67.26
2018-11-28T15:20:13.185Z,67.16
2018-11-28T15:22:41.834Z,67.54
2018-11-28T15:25:09.774Z,67.11
2018-11-28T15:27:37.326Z,68.38
2018-11-28T15:30:05.289Z,67.76
2018-11-28T15:32:32.896Z,68.44
2018-11-28T15:35:00.457Z,68.75
2018-11-28T15:37:28.042Z,69.17
2018-11-28T15:39:56.085Z,69.34
2018-11-28T15:42:23.243Z,69.17
2018-11-28T15:44:50.829Z,69.45
2018-11-28T15:47:18.344Z,69.87
2018-11-28T15:49:45.838Z,70.64
2018-11-28T15:52:13.467Z,70.83
2018-11-28T15:54:41.010Z,70.75
2018-11-28T15:57:08.531Z,70.83
2018-11-28T15:59:36.073Z,71.72
2018-11-28T16:02:03.670Z,72.18
2018-11-28T16:04:31.307Z,72.56
2018-11-28T16:06:58.813Z,73.10
2018-11-28T16:09:31.946Z,73.43
2018-11-28T16:11:59.341Z,73.58
2018-11-28T16:14:26.853Z,72.88
2018-11-28T16:16:54.474Z,73.52
2018-11-28T16:19:22.087Z,74.14
2018-11-28T16:21:49.674Z,73.92
2018-11-28T16:24:17.206Z,74.02
2018-11-28T16:26:44.732Z,73.57
2018-11-28T16:29:12.275Z,73.47
2018-11-28T16:31:39.967Z,73.10
2018-11-28T16:34:07.481Z,73.04
2018-11-28T16:36:35.024Z,73.30
2018-11-28T16:39:02.584Z,73.15
2018-11-28T16:41:30.122Z,73.64
2018-11-28T16:43:57.681Z,73.67
2018-11-28T16:46:25.237Z,73.64
2018-11-28T16:48:52.854Z,73.32
2018-11-28T16:51:20.457Z,73.41
2018-11-28T16:53:48.029Z,73.48
2018-11-28T16:56:15.525Z,73.29
2018-11-28T16:58:43.096Z,73.59
2018-11-28T17:01:10.701Z,73.30
2018-11-28T17:03:38.256Z,72.89
2018-11-28T17:06:05.878Z,73.03
2018-11-28T17:08:33.548Z,73.58
2018-11-28T17:11:01.089Z,73.53
2018-11-28T17:13:28.629Z,73.46
2018-11-28T17:15:56.129Z,73.22
2018-11-28T17:18:23.664Z,73.24
2018-11-28T17:20:51.239Z,74.47
2018-11-28T17:23:18.813Z,74.68
2018-11-28T17:25:46.345Z,74.68
2018-11-28T17:28:13.948Z,74.56
2018-11-28T17:30:41.722Z,75.32
2018-11-28T17:33:09.211Z,75.11
2018-11-28T17:35:36.831Z,74.98
2018-11-28T17:38:04.415Z,74.88
2018-11-28T17:40:32.038Z,76.20
2018-11-28T17:42:59.712Z,75.36
2018-11-28T17:45:27.685Z,75.58
2018-11-28T17:47:55.252Z,75.33
2018-11-28T17:50:23.301Z,75.11
2018-11-28T17:52:57.894Z,76.07
2018-11-28T17:55:25.995Z,75.92
2018-11-28T17:57:54.273Z,75.37
2018-11-28T18:00:22.429Z,75.40
2018-11-28T18:02:50.077Z,75.33
2018-11-28T18:05:17.619Z,75.81
2018-11-28T18:07:45.180Z,75.67
2018-11-28T18:10:16.339Z,75.53
2018-11-28T18:12:49.602Z,76.10
2018-11-28T18:15:17.197Z,76.50
2018-11-28T18:17:44.881Z,77.03
2018-11-28T18:20:12.464Z,78.47
2018-11-28T18:22:40.029Z,78.24
2018-11-28T18:25:08.605Z,79.13
2018-11-28T18:27:36.217Z,79.23
2018-11-28T18:30:03.804Z,79.66
2018-11-28T18:32:31.458Z,79.38
2018-11-28T18:34:59.012Z,79.52
2018-11-28T18:37:26.742Z,79.05
2018-11-28T18:39:54.530Z,79.85
2018-11-28T18:42:22.202Z,80.14
2018-11-28T18:44:49.768Z,79.53
2018-11-28T18:47:17.387Z,79.50
2018-11-28T18:49:45.195Z,79.55
2018-11-28T18:52:12.967Z,79.89
2018-11-28T18:54:40.530Z,79.75
2018-11-28T18:57:08.090Z,80.32
2018-11-28T18:59:35.678Z,81.38
2018-11-28T19:02:03.276Z,81.51
2018-11-28T19:04:31.041Z,82.20
2018-11-28T19:06:58.640Z,81.79
2018-11-28T19:09:31.631Z,81.73
2018-11-28T19:11:59.255Z,82.00
2018-11-28T19:14:26.941Z,82.39
2018-11-28T19:16:54.648Z,82.97
2018-11-28T19:19:22.389Z,83.03
2018-11-28T19:21:49.912Z,83.48
2018-11-28T19:24:17.517Z,82.92
2018-11-28T19:26:45.061Z,83.32
2018-11-28T19:29:12.737Z,83.35
2018-11-28T19:31:40.256Z,82.86
2018-11-28T19:34:08.134Z,83.19
2018-11-28T19:36:35.812Z,83.26
2018-11-28T19:39:03.816Z,82.97
2018-11-28T19:41:31.608Z,83.47
2018-11-28T19:43:59.196Z,83.49
2018-11-28T19:46:26.907Z,83.22
2018-11-28T19:48:54.613Z,83.71
2018-11-28T19:51:22.203Z,84.06
2018-11-28T19:53:49.920Z,84.17
2018-11-28T19:56:18.085Z,84.49
2018-11-28T19:58:45.721Z,84.14
2018-11-28T20:01:13.646Z,83.79
2018-11-28T20:03:41.346Z,84.08
2018-11-28T20:06:09.685Z,84.11
2018-11-28T20:08:37.357Z,84.04
2018-11-28T20:11:05.257Z,83.07
2018-11-28T20:13:32.750Z,83.49
2018-11-28T20:16:00.449Z,83.63
2018-11-28T20:18:28.027Z,83.44
2018-11-28T20:20:55.676Z,82.69
2018-11-28T20:23:23.212Z,82.41
2018-11-28T20:25:51.064Z,82.11
2018-11-28T20:28:18.947Z,81.24
2018-11-28T20:30:47.947Z,81.21
2018-11-28T20:33:16.422Z,81.07
2018-11-28T20:35:44.634Z,81.11
2018-11-28T20:38:17.973Z,80.86
2018-11-28T20:40:45.728Z,80.77
2018-11-28T20:43:13.486Z,80.44
2018-11-28T20:45:41.263Z,81.16
2018-11-28T20:48:09.212Z,80.78
2018-11-28T20:50:36.867Z,80.88
2018-11-28T20:53:06.726Z,80.18
2018-11-28T20:55:34.465Z,80.89
2018-11-28T20:58:02.206Z,80.43
2018-11-28T21:00:29.861Z,80.61
2018-11-28T21:02:57.528Z,80.11
2018-11-28T21:05:25.237Z,80.23
2018-11-28T21:07:52.923Z,79.84
2018-11-28T21:10:26.123Z,79.44
2018-11-28T21:12:53.966Z,80.27
2018-11-28T21:15:21.604Z,80.17
2018-11-28T21:17:49.465Z,79.99
2018-11-28T21:20:17.554Z,79.85
2018-11-28T21:22:46.821Z,80.01
2018-11-28T21:25:14.427Z,79.43
2018-11-28T21:27:42.164Z,80.44
2018-11-28T21:30:10.371Z,80.15
2018-11-28T21:32:38.384Z,80.79
2018-11-28T21:35:07.649Z,80.74
2018-11-28T21:37:35.197Z,80.42
2018-11-28T21:40:03.219Z,80.75
2018-11-28T21:42:30.960Z,80.83
2018-11-28T21:44:58.563Z,80.29
2018-11-28T21:47:26.282Z,80.47
2018-11-28T21:49:54.506Z,80.05
2018-11-28T21:52:22.183Z,79.72
2018-11-28T21:54:49.992Z,80.06
2018-11-28T21:57:18.747Z,80.16
2018-11-28T21:59:46.319Z,79.87
2018-11-28T22:02:13.883Z,79.54
2018-11-28T22:04:41.426Z,79.76
2018-11-28T22:07:09.403Z,79.88
2018-11-28T22:09:36.997Z,80.18
2018-11-28T22:12:04.577Z,79.97
2018-11-28T22:14:32.198Z,79.40
2018-11-28T22:17:00.820Z,79.77
2018-11-28T22:19:29.858Z,80.33
2018-11-28T22:21:57.558Z,80.19
2018-11-28T22:24:25.188Z,79.99
2018-11-28T22:26:53.380Z,78.90
2018-11-28T22:29:21.080Z,79.37
2018-11-28T22:31:48.608Z,79.28
2018-11-28T22:34:16.204Z,79.52
2018-11-28T22:36:43.779Z,79.98
2018-11-28T22:39:11.442Z,79.32
2018-11-28T22:41:39.089Z,78.95
2018-11-28T22:44:06.664Z,78.17
2018-11-28T22:46:34.566Z,78.83
2018-11-28T22:49:02.242Z,78.96
2018-11-28T22:51:29.954Z,77.66
2018-11-28T22:53:57.520Z,77.89
2018-11-28T22:56:25.110Z,78.43
2018-11-28T22:58:52.614Z,78.51
2018-11-28T23:01:25.608Z,77.88
2018-11-28T23:03:53.132Z,77.28
2018-11-28T23:06:20.669Z,77.81
2018-11-28T23:08:48.227Z,77.43
2018-11-28T23:11:15.907Z,78.07
2018-11-28T23:13:43.445Z,77.23
2018-11-28T23:16:11.088Z,77.67
2018-11-28T23:18:38.848Z,76.77
2018-11-28T23:21:06.529Z,77.00
2018-11-28T23:23:34.230Z,77.27
2018-11-28T23:26:01.733Z,77.13
2018-11-28T23:28:29.597Z,77.40
2018-11-28T23:30:57.230Z,78.02
2018-11-28T23:33:24.960Z,77.88
2018-11-28T23:35:52.486Z,78.10
2018-11-28T23:38:20.064Z,77.77
2018-11-28T23:40:47.605Z,78.16
2018-11-28T23:43:15.396Z,77.37
2018-11-28T23:45:43.121Z,76.91
2018-11-28T23:48:10.764Z,77.11
2018-11-28T23:50:38.501Z,78.26
2018-11-28T23:53:06.210Z,78.26
2018-11-28T23:55:33.762Z,78.62
2018-11-28T23:58:01.398Z,79.73
